Site-Specific Table for Stillwater
(NFDRS Fuel Model T - Tallgrass with brush)
DATE TIME TAIR RELH WSPD RAIN_24H BI SC ERC IC 1-HR 10-HR 100-HR 1000-HR HERB WOODY KBDI
Mon May 29, 2017 10:00 pm CDT 68°F 74% 1 mph 0.00 in. 4 1 3 2% 9% 8% 9% 12% 172% 146% 106
Mon May 29, 2017 9:00 pm CDT 72°F 58% 1 mph 0.00 in. 5 1 4 4% 6% 7% 9% 12% 172% 146% 106
Mon May 29, 2017 8:00 pm CDT 81°F 41% 4 mph 0.00 in. 7 2 4 7% 5% 7% 9% 12% 172% 146% 106
Mon May 29, 2017 7:00 pm CDT 86°F 31% 6 mph 0.00 in. 9 3 4 10% 5% 7% 9% 12% 172% 146% 106
Mon May 29, 2017 6:00 pm CDT 85°F 29% 4 mph 0.00 in. 9 2 5 9% 5% 7% 9% 12% 172% 146% 106
Mon May 29, 2017 5:00 pm CDT 88°F 25% 7 mph 0.00 in. 11 3 5 12% 4% 7% 9% 11% 172% 146% 106
Mon May 29, 2017 4:00 pm CDT 89°F 27% 7 mph 0.00 in. 11 3 5 12% 4% 7% 9% 11% 172% 146% 93
Mon May 29, 2017 3:00 pm CDT 87°F 26% 7 mph 0.00 in. 11 4 4 12% 4% 8% 9% 11% 172% 146% 93
Mon May 29, 2017 2:00 pm CDT 86°F 29% 6 mph 0.00 in. 9 3 4 10% 5% 9% 9% 11% 172% 146% 93
Mon May 29, 2017 1:00 pm CDT 85°F 30% 7 mph 0.00 in. 9 3 4 10% 5% 10% 9% 11% 172% 146% 93
Mon May 29, 2017 12:00 pm CDT 83°F 36% 9 mph 0.00 in. 10 4 3 10% 6% 11% 10% 11% 172% 146% 93
Mon May 29, 2017 11:00 am CDT 81°F 41% 4 mph 0.00 in. 6 2 2 5% 7% 12% 10% 11% 172% 146% 93
Mon May 29, 2017 10:00 am CDT 76°F 48% 7 mph 0.00 in. 6 3 1 4% 10% 14% 10% 12% 172% 146% 93
Mon May 29, 2017 9:00 am CDT 71°F 59% 6 mph 0.00 in. 1 1 0 1% 14% 15% 10% 12% 172% 146% 93
Mon May 29, 2017 8:00 am CDT 63°F 75% 4 mph 0.00 in. 0 0 0 0% 22% 15% 11% 12% 172% 146% 93
Mon May 29, 2017 7:00 am CDT 56°F 96% 0 mph 0.00 in. 0 0 0 0% 30% 16% 11% 13% 172% 146% 93
Mon May 29, 2017 6:00 am CDT 55°F 98% 0 mph 0.00 in. 0 0 0 0% 31% 15% 11% 13% 172% 146% 93
Mon May 29, 2017 5:00 am CDT 55°F 97% 0 mph 0.00 in. 0 0 0 0% 31% 15% 11% 13% 172% 146% 93
Mon May 29, 2017 4:00 am CDT 56°F 98% 1 mph 0.00 in. 0 0 0 0% 30% 15% 11% 13% 172% 146% 93
Mon May 29, 2017 3:00 am CDT 56°F 97% 1 mph 0.00 in. 0 0 0 0% 28% 14% 10% 13% 172% 146% 93
DATE TIME TAIR RELH WSPD RAIN_24H BI SC ERC IC 1-HR 10-HR 100-HR 1000-HR HERB WOODY KBDI
Mon May 29, 2017 2:00 am CDT 57°F 96% 0 mph 0.00 in. 0 0 0 0% 24% 14% 10% 13% 172% 146% 93
Mon May 29, 2017 1:00 am CDT 58°F 94% 1 mph 0.02 in. 0 0 0 0% 20% 13% 10% 13% 172% 146% 93
Mon May 29, 2017 12:00 am CDT 60°F 91% 0 mph 0.02 in. 0 0 0 0% 15% 11% 10% 13% 172% 146% 93
Sun May 28, 2017 11:00 pm CDT 62°F 83% 0 mph 0.02 in. 2 0 1 1% 12% 10% 10% 13% 172% 146% 93
Sun May 28, 2017 10:00 pm CDT 65°F 72% 1 mph 0.02 in. 4 1 2 2% 9% 9% 10% 13% 172% 146% 93